Aviation Digital Data Service (ADDS)

Output produced by METARs form (1352 UTC 23 September 2021)
found at http://aviationweather.gov/metar/data/
 
KBWI 231318Z 31005KT 6SM -RA BR BKN010 BKN026 OVC036 17/16 A2981 RMK AO2 LTG DSNT NE-SE P0001 T01720156 $
KBWI 231254Z 28009KT 4SM RA BR SCT011 BKN024 OVC042 17/16 A2979 RMK AO2 LTG DSNT NE AND SE SLP087 P0016 T01720156 $
KBWI 231233Z 29009G18KT 1 3/4SM R10/5000VP6000FT RA BR SCT008 BKN021 OVC038 17/16 A2981 RMK AO2 LTG DSNT E AND S P0011 T01720156 $
KBWI 231210Z 28006G18KT 3SM RA BR SCT008 BKN026 OVC038 17/16 A2979 RMK AO2 LTG DSNT E AND SE P0004 T01720161 $
KBWI 231154Z 26012KT 2SM +RA BR SCT008 BKN024 OVC032 18/16 A2979 RMK AO2 LTG DSNT S SLP087 P0036 60052 70080 T01780161 10250 20178 53017
KBWI 231132Z 28012G20KT 1 1/2SM R10/5500VP6000FT RA BR SCT010 BKN016 OVC022 19/17 A2977 RMK AO2 LTG DSNT E-SW P0016 T01940172
KBWI 231125Z 26010G23KT 2 1/2SM RA BR SCT008 BKN014 OVC023 22/20 A2977 RMK AO2 LTG DSNT E-SW P0007 T02170200
KBWI 231054Z 16007G20KT 8SM -RA SCT012 BKN018 OVC026 24/22 A2975 RMK AO2 RAB08 SLP071 P0010 T02390222
KBWI 231045Z 18008G15KT 5SM RA BR BKN014 BKN018 OVC026 24/22 A2975 RMK AO2 RAB08 P0008 T02390222
KBWI 230954Z 15010G17KT 10SM SCT017 BKN023 OVC048 24/22 A2974 RMK AO2 RAB03E29 SLP071 P0004 T02440222
KBWI 230916Z 14011G23KT 5SM -RA BR SCT014 BKN019 BKN030 BKN160 24/22 A2974 RMK AO2 LTG DSNT NW RAB03 P0004 T02440222
KBWI 230912Z 14011G20KT 1 3/4SM +RA BKN019 OVC030 24/22 A2974 RMK AO2 LTG DSNT NW RAB03 P0000 T02440217
KBWI 230854Z 13017G26KT 10SM BKN019 BKN032 OVC050 25/22 A2974 RMK AO2 PK WND 13026/0805 RAE49 SLP070 BINOVC P0002 60002 T02500217 58023
KBWI 230754Z 13011G23KT 9SM -RA BKN017 BKN021 OVC046 24/22 A2976 RMK AO2 PK WND 13027/0714 LTG DSNT SW AND W SLP077 OCNL LTGIC DSNT SW CB DSNT SW MOV N P0000 T02440217
KBWI 230654Z 13012G19KT 8SM -RA BKN019 BKN029 OVC045 25/22 A2980 RMK AO2 RAB53 SLP088 P0000 T02500217
KBWI 230554Z 13013G25KT 10SM BKN022 OVC029 25/22 A2981 RMK AO2 PK WND 16026/0518 SLP093 60001 T02500217 10250 20233 58017
KBWI 230454Z 13008G21KT 10SM SCT018 BKN026 BKN050 OVC160 25/22 A2983 RMK AO2 RAB26E37 SLP101 P0000 T02500217 402720211
KBWI 230354Z 14010G18KT 10SM BKN020 BKN037 OVC130 24/22 A2986 RMK AO2 SLP109 T02440217
KBWI 230254Z 13007KT 10SM BKN021 BKN044 OVC110 24/22 A2986 RMK AO2 SLP111 60001 T02440217 52001
KBWI 230154Z 14007G15KT 10SM FEW017 BKN023 OVC110 24/22 A2986 RMK AO2 RAE11 SLP109 P0001 T02440217
KBWI 230128Z 13008KT 10SM FEW017 BKN026 BKN095 24/22 A2986 RMK AO2 RAE11 P0001 T02390217
KBWI 230054Z 13007KT 10SM -RA SCT025 BKN039 OVC100 24/22 A2986 RMK AO2 RAB2357E17B45 SLP111 P0000 T02390217
KBWI 222354Z 13006KT 8SM SCT024 BKN036 BKN120 23/21 A2986 RMK AO2 RAE07B35E52 SLP109 P0000 60003 T02330211 10272 20228 56007
KBWI 222254Z COR 13008G16KT 8SM -RA FEW024 SCT100 BKN120 OVC220 24/21 A2987 RMK AO2 PK WND 16028/2155 RAB09 SLP112 P0002 T02390211
KBWI 222237Z 15008G21KT 8SM -RA SCT026 BKN060 BKN090 OVC130 24/21 A2987 RMK AO2 PK WND 16028/2155 P0001 T02390211
KBWI 222213Z COR 16016G27KT 9SM -RA BKN024 BKN032 BKN047 26/21 A2987 RMK AO2 PK WND 16028/2155 LTG DSNT SW RAB09 P0000 T02560211
KBWI 222154Z 15015G27KT 10SM SCT027 SCT032 BKN110 OVC220 26/21 A2987 RMK AO2 PK WND 17027/2056 LTG DSNT SW SLP112 T02610211
KBWI 222123Z 14013G26KT 10SM SCT027 BKN032 BKN100 OVC220 26/22 A2988 RMK AO2 PK WND 17027/2056 T02610217
KBWI 222054Z 16013G27KT 10SM BKN026 BKN037 BKN110 OVC220 27/21 A2988 RMK AO2 PK WND 13032/2019 RAB01E10 SLP117 P0000 60001 T02670211 56018
KBWI 221954Z 15012G23KT 10SM BKN027 BKN085 BKN130 27/21 A2988 RMK AO2 PK WND 12032/1916 LTG DSNT W SLP117 T02670211
KBWI 221935Z 14019G30KT 10SM BKN027 BKN085 BKN130 27/22 A2988 RMK AO2 PK WND 12032/1916 LTG DSNT W T02720217
KBWI 221854Z 14012G24KT 10SM FEW014 SCT049 BKN080 BKN130 27/22 A2990 RMK AO2 RAB36E49 SLP124 P0001 T02670222
KBWI 221754Z 14008G16KT 100V160 7SM FEW014 SCT047 BKN080 BKN130 26/23 A2993 RMK AO2 RAE1656B12E48 SLP135 P0000 60024 T02560228 10267 20233 58024 $
KBWI 221654Z 15006G17KT 7SM -RA SCT023 BKN042 OVC100 26/23 A2997 RMK AO2 RAE07B26 SLP146 P0001 T02560228 $
KBWI 221612Z 16008G19KT 7SM SCT016 BKN043 BKN065 OVC130 25/23 A2998 RMK AO2 RAE07 P0001 T02500228 $
KBWI 221554Z 13007G16KT 3SM R10/2400VP6000FT RA BR SCT012 BKN021 OVC060 24/22 A2999 RMK AO2 SLP155 VIS N-NE 1 P0023 T02390217
KBWI 221549Z 15009KT 110V170 1SM R10/2400VP6000FT +RA BR SCT012 BKN021 OVC030 24/22 A3000 RMK AO2 P0021
KBWI 221544Z COR 21009KT 1 1/2SM R10/3000VP6000FT +RA BR BKN021 BKN030 OVC070 24/22 A3000 RMK AO2 VIS 1/2V5 P0004 T02440222
KBWI 221454Z 14008G19KT 10SM -RA FEW016 BKN023 OVC075 26/21 A3000 RMK AO2 RAB49 SLP158 P0000 60000 T02610211 58015
KBWI 221354Z 13011G18KT 10SM SCT014 BKN020 BKN075 26/22 A3002 RMK AO2 SLP164 T02560217
KBWI 221328Z 12009KT 10SM BKN012 BKN020 OVC070 25/22 A3003 RMK AO2 T02500217
KBWI 221254Z 13006KT 10SM SCT011 BKN017 OVC070 24/21 A3004 RMK AO2 SLP172 T02440211
KBWI 221210Z 11008KT 10SM SCT009 BKN015 BKN070 23/21 A3005 RMK AO2 T02330211
KBWI 221154Z 11008KT 10SM BKN009 BKN015 BKN070 23/21 A3005 RMK AO2 SLP174 T02330211 10233 20211 58011
KBWI 221054Z 11007KT 10SM BKN009 OVC110 23/21 A3006 RMK AO2 SLP178 T02280211
KBWI 220954Z 10005KT 10SM OVC007 22/21 A3007 RMK AO2 SLP181 T02220206
KBWI 220854Z 09006KT 9SM OVC007 22/21 A3008 RMK AO2 SLP184 T02170206 56022
KBWI 220815Z 09005KT 10SM OVC007 22/20 A3009 RMK AO2 T02170200
KBWI 220754Z 09006KT 10SM SCT007 SCT022 BKN120 BKN240 21/20 A3009 RMK AO2 SLP189 T02110200
KBWI 220654Z 09005KT 10SM FEW009 FEW031 SCT120 BKN240 22/20 A3012 RMK AO2 SLP196 T02170200
KBWI 220640Z 08005KT 10SM FEW009 SCT026 BKN120 22/20 A3012 RMK AO2 T02220200
KBWI 220617Z 09005KT 10SM FEW009 SCT012 OVC026 22/20 A3013 RMK AO2 T02220200
KBWI 220554Z 10004KT 10SM BKN012 OVC120 22/20 A3014 RMK AO2 SLP206 T02220200 10250 20222 58013
KBWI 220523Z 09005KT 10SM BKN012 BKN120 BKN250 22/20 A3015 RMK AO2 BKN012 V SCT T02220200
KBWI 220454Z 10005KT 10SM SCT012 BKN120 BKN250 23/20 A3016 RMK AO2 SLP211 T02280200 402830183
KBWI 220412Z 11006KT 10SM SCT014 BKN024 OVC120 23/20 A3017 RMK AO2 T02280200
KBWI 220354Z 11006KT 10SM BKN014 BKN021 OVC120 23/20 A3017 RMK AO2 SLP217 T02280200
KBWI 220344Z 11005KT 10SM BKN014 OVC021 23/20 A3018 RMK AO2 T02280200
KBWI 220254Z 10006KT 10SM BKN018 OVC120 23/19 A3018 RMK AO2 SLP219 T02280194 58002
KBWI 220154Z 11007KT 10SM FEW080 SCT120 BKN200 23/19 A3019 RMK AO2 SLP222 T02330189
KBWI 231127Z 2312/2418 16012G22KT 5SM -SHRA BKN015 OVC045 
     TEMPO 2312/2316 2SM +TSRA OVC008CB 
     FM231600 34009KT P6SM VCSH BKN025 
     FM232000 32005KT P6SM SCT040 
     FM240900 30004KT P6SM FEW250